Malaspina — WI6803 — position and weather

sailwx.info

Track history (hours):
 
Tides and Currents Weather Stations Pressure Air Temp Water Temp Dewpoint Dewpoint Depression Visibility Wind Speed Wind Dir Waves Ship Positions

Malaspina

Owner: ALASKA, STATE OF, ANCHORAGE, AK. More information available from US FCC via Universal Licensing System and Coast Guard Vessel Documentation Center.

Last reported at 2019-Dec-01 13:34 UTC. Time now 2019-Dec-15 09:55 UTC.
Position N 58°09' W 135°19'.
Warning: this ship's position is 13 days out of date.

Type: Passenger vessel. MMSI: 367143000.

Date/timePositionNaut miles runAvg speedWind from/ knotsBaromVisibWave heightAir tempDewpointWater temp
2019-Dec-01 13:34N 58°09' W 135°19'5 9.3
2019-Dec-01 13:00N 58°07' W 135°28'0 0.1
2019-Dec-01 11:30N 58°07' W 135°27'  
2019-Nov-26 07:30N 54°14' W 130°26'3 6.5
2019-Nov-26 07:01N 54°16' W 130°21'2 0.6
2019-Nov-26 03:26N 54°18' W 130°21'  
2019-Nov-22 11:52N 54°41' W 130°44'1315.1
2019-Nov-22 11:00N 54°28' W 130°38'3115.7
2019-Nov-22 09:00N 54°00' W 130°13'815.7
2019-Nov-22 08:30N 53°53' W 130°06'9414.7
2019-Nov-22 02:04N 52°38' W 128°32'2610.2
2019-Nov-21 23:31N 52°14' W 128°14'5413.4
2019-Nov-21 19:31N 51°22' W 127°52'2513.8
2019-Nov-21 17:42N 50°60' W 127°35'  
Track history (hours):
 
Tides and Currents Weather Stations Pressure Air Temp Water Temp Dewpoint Dewpoint Depression Visibility Wind Speed Wind Dir Waves Ship Positions

Malaspina

Owner: ALASKA, STATE OF, ANCHORAGE, AK. More information available from US FCC via Universal Licensing System and Coast Guard Vessel Documentation Center.

Last reported at 2019-Dec-01 13:34 UTC. Time now 2019-Dec-15 09:55 UTC.
Position N 58°09' W 135°19'.
Warning: this ship's position is 13 days out of date.

Type: Passenger vessel. MMSI: 367143000.

Date/timePositionNaut miles runAvg speedWind from/ knotsBaromVisibWave heightAir tempDewpointWater temp
2019-Dec-01 13:34N 58°09' W 135°19'5 9.3
2019-Dec-01 13:00N 58°07' W 135°28'0 0.1
2019-Dec-01 11:30N 58°07' W 135°27'  
2019-Nov-26 07:30N 54°14' W 130°26'3 6.5
2019-Nov-26 07:01N 54°16' W 130°21'2 0.6
2019-Nov-26 03:26N 54°18' W 130°21'  
2019-Nov-22 11:52N 54°41' W 130°44'1315.1
2019-Nov-22 11:00N 54°28' W 130°38'3115.7
2019-Nov-22 09:00N 54°00' W 130°13'815.7
2019-Nov-22 08:30N 53°53' W 130°06'9414.7
2019-Nov-22 02:04N 52°38' W 128°32'2610.2
2019-Nov-21 23:31N 52°14' W 128°14'5413.4
2019-Nov-21 19:31N 51°22' W 127°52'2513.8
2019-Nov-21 17:42N 50°60' W 127°35'  

Dump ship's entire track history